Time;durP1;ratioP1;P1;durP2;ratioP2;P2;SDS_P1;SDS_P2;PMS_P1;PMS_P2;Temp;Humidity;BMP_temperature;BMP_pressure;BME280_temperature;BME280_humidity;BME280_pressure;Samples;Min_cycle;Max_cycle;Signal;HPM_P1;HPM_P2
2021/09/03 00:00:52;;;;;;;5.22;0.65;;;;;;;;;;4982365;28;20042;-55
2021/09/03 00:03:18;;;;;;;2.45;0.45;;;;;;;;;;4981190;28;20042;-55
2021/09/03 00:05:43;;;;;;;1.23;0.40;;;;;;;;;;4982195;28;20048;-56
2021/09/03 00:08:09;;;;;;;2.22;0.70;;;;;;;;;;4981878;28;20038;-55
2021/09/03 00:10:35;;;;;;;1.27;0.50;;;;;;;;;;4980565;28;20097;-52
2021/09/03 00:13:01;;;;;;;1.60;0.50;;;;;;;;;;4981717;28;20057;-55
2021/09/03 00:15:27;;;;;;;1.90;0.55;;;;;;;;;;4979971;28;20457;-55
2021/09/03 00:17:52;;;;;;;2.22;0.60;;;;;;;;;;5001129;28;20046;-55
2021/09/03 00:20:18;;;;;;;2.03;0.70;;;;;;;;;;4983648;28;20056;-55
2021/09/03 00:22:44;;;;;;;2.22;0.70;;;;;;;;;;5002103;28;20061;-55
2021/09/03 00:25:11;;;;;;;1.38;0.50;;;;;;;;;;5001122;28;20127;-55
2021/09/03 00:27:37;;;;;;;4.55;0.60;;;;;;;;;;5001056;28;20087;-55
2021/09/03 00:30:04;;;;;;;2.22;0.60;;;;;;;;;;5000852;28;20153;-55
2021/09/03 00:32:29;;;;;;;2.50;0.80;;;;;;;;;;5001175;28;20034;-52
2021/09/03 00:34:57;;;;;;;2.17;0.70;;;;;;;;;;5000468;28;20139;-56
2021/09/03 00:37:23;;;;;;;4.57;0.70;;;;;;;;;;5000967;28;20065;-57
2021/09/03 00:39:49;;;;;;;2.95;0.82;;;;;;;;;;5001291;28;20128;-56
2021/09/03 00:42:15;;;;;;;4.20;0.68;;;;;;;;;;5001289;28;20034;-56
2021/09/03 00:44:41;;;;;;;2.10;0.68;;;;;;;;;;4998447;28;20468;-56
2021/09/03 00:47:07;;;;;;;1.55;0.52;;;;;;;;;;5001031;28;20075;-53
2021/09/03 00:49:33;;;;;;;2.08;0.63;;;;;;;;;;5001487;28;20515;-57
2021/09/03 00:52:01;;;;;;;2.13;0.63;;;;;;;;;;5000951;28;20049;-56
2021/09/03 00:54:27;;;;;;;2.22;0.63;;;;;;;;;;5001337;28;20046;-55
2021/09/03 00:56:53;;;;;;;1.10;0.50;;;;;;;;;;4999812;28;20477;-56
2021/09/03 00:59:19;;;;;;;2.35;0.75;;;;;;;;;;5000117;28;20066;-55
2021/09/03 01:01:44;;;;;;;2.38;0.70;;;;;;;;;;5001298;28;20042;-53
2021/09/03 01:04:10;;;;;;;2.78;0.57;;;;;;;;;;5000736;28;20085;-54
2021/09/03 01:06:36;;;;;;;2.50;0.80;;;;;;;;;;5000326;28;20670;-55
2021/09/03 01:09:02;;;;;;;2.70;0.80;;;;;;;;;;5001364;28;20129;-56
2021/09/03 01:11:28;;;;;;;2.20;0.70;;;;;;;;;;4999851;28;20060;-52
2021/09/03 01:13:54;;;;;;;2.10;0.80;;;;;;;;;;5000633;28;20042;-56
2021/09/03 01:16:20;;;;;;;3.67;0.80;;;;;;;;;;4998458;28;20103;-55
2021/09/03 01:18:46;;;;;;;2.72;0.75;;;;;;;;;;5000166;28;20061;-54
2021/09/03 01:21:11;;;;;;;2.60;0.70;;;;;;;;;;4998385;28;20679;-54
2021/09/03 01:23:38;;;;;;;3.75;0.70;;;;;;;;;;4986315;28;20034;-56
2021/09/03 01:26:04;;;;;;;2.67;0.70;;;;;;;;;;4999913;28;20038;-54
2021/09/03 01:28:31;;;;;;;4.15;0.88;;;;;;;;;;4998879;28;20052;-55
2021/09/03 01:30:56;;;;;;;2.25;0.70;;;;;;;;;;4997698;28;20050;-56
2021/09/03 01:33:23;;;;;;;2.00;0.68;;;;;;;;;;4999990;28;20037;-52
2021/09/03 01:35:49;;;;;;;2.95;0.77;;;;;;;;;;4998424;28;20532;-60
2021/09/03 01:38:14;;;;;;;1.70;0.60;;;;;;;;;;5001032;28;20121;-53
2021/09/03 01:40:40;;;;;;;2.70;0.80;;;;;;;;;;5002318;28;20045;-56
2021/09/03 01:43:06;;;;;;;2.90;0.90;;;;;;;;;;5003790;28;20363;-53
2021/09/03 01:45:32;;;;;;;2.58;0.80;;;;;;;;;;5001810;28;20050;-56
2021/09/03 01:47:58;;;;;;;2.40;0.90;;;;;;;;;;5003726;28;20585;-56
2021/09/03 01:50:23;;;;;;;2.90;0.65;;;;;;;;;;5002851;28;20069;-56
2021/09/03 01:52:49;;;;;;;1.88;0.70;;;;;;;;;;5004224;28;20038;-55
2021/09/03 01:55:15;;;;;;;3.22;0.80;;;;;;;;;;5004181;28;20041;-54
2021/09/03 01:57:41;;;;;;;2.80;0.70;;;;;;;;;;5003424;28;20076;-55
2021/09/03 02:00:07;;;;;;;4.10;0.90;;;;;;;;;;5002416;28;20120;-54
2021/09/03 02:02:33;;;;;;;3.33;1.00;;;;;;;;;;4984738;28;20088;-54
2021/09/03 02:04:58;;;;;;;3.83;1.02;;;;;;;;;;4984456;28;22029;-56
2021/09/03 02:07:25;;;;;;;3.65;0.90;;;;;;;;;;5002145;28;20042;-56
2021/09/03 02:09:50;;;;;;;2.63;0.80;;;;;;;;;;5004368;28;20038;-56
2021/09/03 02:12:16;;;;;;;2.33;0.63;;;;;;;;;;5002556;28;20507;-56
2021/09/03 02:14:44;;;;;;;3.53;1.00;;;;;;;;;;5000517;28;20524;-57
2021/09/03 02:17:10;;;;;;;4.10;0.80;;;;;;;;;;5001845;28;20042;-56
2021/09/03 02:19:36;;;;;;;2.70;0.80;;;;;;;;;;5001899;28;20050;-56
2021/09/03 02:22:01;;;;;;;4.60;0.90;;;;;;;;;;5001233;28;20117;-55
2021/09/03 02:24:28;;;;;;;3.25;0.85;;;;;;;;;;5000475;28;20052;-56
2021/09/03 02:26:55;;;;;;;2.50;0.80;;;;;;;;;;5002217;28;20042;-54
2021/09/03 02:29:21;;;;;;;4.53;1.00;;;;;;;;;;5002143;28;20092;-55
2021/09/03 02:31:47;;;;;;;4.43;1.50;;;;;;;;;;5001604;28;20049;-56
2021/09/03 02:34:12;;;;;;;2.88;0.90;;;;;;;;;;5003309;28;20038;-54
2021/09/03 02:36:38;;;;;;;2.90;0.90;;;;;;;;;;4978450;28;20089;-53
2021/09/03 02:39:05;;;;;;;2.72;0.95;;;;;;;;;;5003977;28;20038;-56
2021/09/03 02:41:31;;;;;;;2.47;0.77;;;;;;;;;;5001937;28;20034;-53
2021/09/03 02:43:57;;;;;;;3.17;0.95;;;;;;;;;;5002206;28;20112;-53
2021/09/03 02:46:22;;;;;;;2.00;0.63;;;;;;;;;;4999827;28;20042;-52
2021/09/03 02:48:48;;;;;;;6.18;1.02;;;;;;;;;;5002570;28;20104;-56
2021/09/03 02:51:14;;;;;;;5.10;0.93;;;;;;;;;;5001643;28;20049;-57
2021/09/03 02:53:40;;;;;;;5.22;1.88;;;;;;;;;;5001781;28;20512;-57
2021/09/03 02:56:06;;;;;;;6.05;2.30;;;;;;;;;;5001788;28;20760;-57
2021/09/03 02:58:31;;;;;;;5.50;1.52;;;;;;;;;;5002783;28;20038;-55
2021/09/03 03:00:57;;;;;;;4.95;1.65;;;;;;;;;;5001572;28;20038;-53
2021/09/03 03:03:23;;;;;;;6.85;1.20;;;;;;;;;;5002304;28;20108;-54
2021/09/03 03:05:49;;;;;;;5.13;1.10;;;;;;;;;;5002674;28;20073;-56
2021/09/03 03:08:15;;;;;;;8.82;2.40;;;;;;;;;;5002952;28;20502;-56
2021/09/03 03:10:41;;;;;;;5.22;1.52;;;;;;;;;;5001788;28;20183;-57
2021/09/03 03:13:20;;;;;;;8.55;1.10;;;;;;;;;;5002406;28;20037;-56
2021/09/03 03:15:46;;;;;;;8.43;1.30;;;;;;;;;;5000258;28;20049;-56
2021/09/03 03:18:12;;;;;;;5.38;1.33;;;;;;;;;;5001781;28;20038;-55
2021/09/03 03:20:38;;;;;;;11.20;3.30;;;;;;;;;;5000269;28;20708;-53
2021/09/03 03:23:04;;;;;;;11.88;4.30;;;;;;;;;;5000556;28;20025;-52
2021/09/03 03:25:30;;;;;;;8.15;3.10;;;;;;;;;;4999783;28;20045;-52
2021/09/03 03:27:56;;;;;;;8.27;3.00;;;;;;;;;;5000904;28;20046;-55
2021/09/03 03:30:21;;;;;;;5.78;2.42;;;;;;;;;;5000410;28;20572;-53
2021/09/03 03:32:47;;;;;;;10.48;2.33;;;;;;;;;;5001969;28;20049;-56
2021/09/03 03:35:13;;;;;;;8.80;3.13;;;;;;;;;;5000564;28;20086;-55
2021/09/03 03:37:39;;;;;;;12.00;2.67;;;;;;;;;;5001956;28;20052;-55
2021/09/03 03:40:05;;;;;;;12.15;2.97;;;;;;;;;;5002183;28;20049;-56
2021/09/03 03:42:31;;;;;;;8.25;2.58;;;;;;;;;;4999630;28;20042;-54
2021/09/03 03:44:57;;;;;;;6.05;2.03;;;;;;;;;;5000634;28;20111;-55
2021/09/03 03:47:22;;;;;;;4.55;1.40;;;;;;;;;;5000623;28;20038;-56
2021/09/03 03:49:48;;;;;;;4.78;1.30;;;;;;;;;;5000698;28;20044;-56
2021/09/03 03:52:14;;;;;;;3.70;1.30;;;;;;;;;;5001507;28;20570;-56
2021/09/03 03:54:40;;;;;;;6.28;1.27;;;;;;;;;;4999770;28;20048;-56
2021/09/03 03:57:06;;;;;;;4.35;1.40;;;;;;;;;;5000418;28;20125;-53
2021/09/03 03:59:31;;;;;;;5.22;1.25;;;;;;;;;;5000619;28;20053;-55
2021/09/03 04:01:57;;;;;;;8.07;1.40;;;;;;;;;;5000534;28;20389;-55
2021/09/03 04:04:23;;;;;;;4.28;1.33;;;;;;;;;;5001142;28;20047;-56
2021/09/03 04:06:49;;;;;;;3.17;1.10;;;;;;;;;;5000135;28;20060;-56
2021/09/03 04:09:15;;;;;;;5.63;1.40;;;;;;;;;;5001005;28;20047;-55
2021/09/03 04:11:41;;;;;;;6.00;1.52;;;;;;;;;;5000568;28;20088;-56
2021/09/03 04:14:07;;;;;;;4.70;1.48;;;;;;;;;;5001724;28;20064;-55
2021/09/03 04:16:33;;;;;;;4.38;1.23;;;;;;;;;;4998745;28;20053;-55
2021/09/03 04:18:59;;;;;;;4.80;1.70;;;;;;;;;;5000587;28;20088;-55
2021/09/03 04:21:25;;;;;;;4.78;1.58;;;;;;;;;;4999573;28;20499;-56
2021/09/03 04:23:50;;;;;;;5.78;1.63;;;;;;;;;;4999801;28;20041;-56
2021/09/03 04:26:16;;;;;;;4.38;1.40;;;;;;;;;;4998700;28;20041;-56
2021/09/03 04:28:43;;;;;;;6.40;1.33;;;;;;;;;;5000189;28;20042;-54
2021/09/03 04:31:09;;;;;;;4.88;1.30;;;;;;;;;;5000167;28;20046;-56
2021/09/03 04:33:35;;;;;;;3.88;1.30;;;;;;;;;;4998947;28;20068;-56
2021/09/03 04:36:01;;;;;;;4.40;1.50;;;;;;;;;;4999526;28;20448;-55
2021/09/03 04:38:28;;;;;;;4.80;1.45;;;;;;;;;;5000550;28;20037;-57
2021/09/03 04:40:54;;;;;;;6.03;1.80;;;;;;;;;;4998142;28;20045;-56
2021/09/03 04:43:20;;;;;;;7.63;1.38;;;;;;;;;;4979645;28;20042;-55
2021/09/03 04:45:46;;;;;;;5.88;1.48;;;;;;;;;;5000614;28;20045;-57
2021/09/03 04:48:13;;;;;;;5.10;1.17;;;;;;;;;;5000289;28;20034;-55
2021/09/03 04:50:39;;;;;;;4.38;1.20;;;;;;;;;;4999282;28;20809;-56
2021/09/03 04:53:05;;;;;;;3.78;1.17;;;;;;;;;;4999558;28;20046;-56
2021/09/03 04:55:31;;;;;;;3.95;1.27;;;;;;;;;;4998181;28;22028;-55
2021/09/03 04:57:57;;;;;;;3.60;1.25;;;;;;;;;;4999404;28;20099;-55
2021/09/03 05:00:23;;;;;;;5.68;1.73;;;;;;;;;;4999984;28;20029;-56
2021/09/03 05:02:49;;;;;;;4.47;1.70;;;;;;;;;;4999593;28;20154;-55
2021/09/03 05:05:15;;;;;;;6.38;1.98;;;;;;;;;;4998010;28;20046;-54
2021/09/03 05:07:41;;;;;;;5.20;1.77;;;;;;;;;;4998370;28;20050;-56
2021/09/03 05:10:08;;;;;;;6.47;1.73;;;;;;;;;;4998987;28;20034;-56
2021/09/03 05:12:34;;;;;;;3.85;1.30;;;;;;;;;;4997220;28;20045;-56
2021/09/03 05:15:00;;;;;;;4.40;1.27;;;;;;;;;;4996564;28;20041;-54
2021/09/03 05:17:26;;;;;;;4.32;1.30;;;;;;;;;;4996449;28;20037;-56
2021/09/03 05:19:52;;;;;;;2.55;1.00;;;;;;;;;;4976574;28;20045;-56
2021/09/03 05:22:18;;;;;;;3.55;1.02;;;;;;;;;;4997639;28;20038;-56
2021/09/03 05:24:44;;;;;;;4.65;1.10;;;;;;;;;;4998155;28;20042;-55
2021/09/03 05:27:09;;;;;;;4.53;1.25;;;;;;;;;;4999749;28;20083;-56
2021/09/03 05:29:35;;;;;;;3.35;1.10;;;;;;;;;;4996991;28;21981;-56
2021/09/03 05:32:01;;;;;;;7.32;1.45;;;;;;;;;;4998458;28;20400;-52
2021/09/03 05:34:27;;;;;;;3.08;0.93;;;;;;;;;;4997948;28;20037;-55
2021/09/03 05:36:53;;;;;;;5.30;1.58;;;;;;;;;;4998434;28;20046;-55
2021/09/03 05:39:18;;;;;;;4.03;1.13;;;;;;;;;;4998086;28;20038;-56
2021/09/03 05:41:44;;;;;;;4.10;1.20;;;;;;;;;;4997372;28;20042;-56
2021/09/03 05:44:10;;;;;;;6.32;1.17;;;;;;;;;;4996476;28;20038;-54
2021/09/03 05:46:36;;;;;;;8.63;1.63;;;;;;;;;;4996532;28;20045;-54
2021/09/03 05:49:02;;;;;;;3.55;1.30;;;;;;;;;;4999330;28;20551;-54
2021/09/03 05:51:27;;;;;;;4.53;1.30;;;;;;;;;;4978071;28;20053;-55
2021/09/03 05:53:53;;;;;;;5.55;1.38;;;;;;;;;;4999625;28;20061;-53
2021/09/03 05:56:19;;;;;;;3.70;1.10;;;;;;;;;;4998822;28;20156;-54
2021/09/03 05:58:45;;;;;;;4.82;1.33;;;;;;;;;;4999422;28;20163;-55
2021/09/03 06:01:10;;;;;;;6.00;1.25;;;;;;;;;;4996376;28;20053;-55
2021/09/03 06:03:36;;;;;;;4.45;1.30;;;;;;;;;;4997997;28;21141;-55
2021/09/03 06:06:02;;;;;;;4.57;1.63;;;;;;;;;;4999042;28;20041;-56
2021/09/03 06:08:28;;;;;;;4.82;1.73;;;;;;;;;;4998502;28;20037;-56
2021/09/03 06:10:54;;;;;;;4.35;1.50;;;;;;;;;;4999538;28;20057;-52
2021/09/03 06:13:20;;;;;;;4.13;1.65;;;;;;;;;;4997331;28;20185;-54
2021/09/03 06:15:46;;;;;;;4.35;1.73;;;;;;;;;;4997686;28;20161;-56
2021/09/03 06:18:12;;;;;;;4.60;1.50;;;;;;;;;;4964195;28;20041;-55
2021/09/03 06:20:38;;;;;;;6.57;1.48;;;;;;;;;;4998043;28;20038;-55
2021/09/03 06:23:03;;;;;;;4.95;1.80;;;;;;;;;;4997759;28;20109;-54
2021/09/03 06:25:29;;;;;;;5.07;1.88;;;;;;;;;;4998134;28;22049;-55
2021/09/03 06:27:55;;;;;;;4.43;1.20;;;;;;;;;;5001334;28;20037;-54
2021/09/03 06:30:21;;;;;;;5.65;1.67;;;;;;;;;;5001743;28;20053;-56
2021/09/03 06:32:47;;;;;;;6.50;1.83;;;;;;;;;;5002513;28;20058;-56
2021/09/03 06:35:13;;;;;;;6.95;1.85;;;;;;;;;;5000090;28;20117;-56
2021/09/03 06:37:39;;;;;;;4.85;1.50;;;;;;;;;;4986558;28;20119;-56
2021/09/03 06:40:06;;;;;;;5.65;1.88;;;;;;;;;;5003302;28;20065;-55
2021/09/03 06:42:33;;;;;;;2.95;1.20;;;;;;;;;;4988054;28;20083;-53
2021/09/03 06:44:59;;;;;;;6.00;1.25;;;;;;;;;;5000904;28;20077;-55
2021/09/03 06:47:25;;;;;;;4.05;1.52;;;;;;;;;;5000366;28;20046;-54
2021/09/03 06:49:51;;;;;;;4.22;1.33;;;;;;;;;;4991765;28;20183;-53
2021/09/03 06:52:17;;;;;;;4.35;1.30;;;;;;;;;;4997448;28;20058;-55
2021/09/03 06:54:43;;;;;;;5.57;1.38;;;;;;;;;;5000276;28;20097;-55
2021/09/03 06:57:09;;;;;;;3.75;1.38;;;;;;;;;;5002174;28;20046;-56
2021/09/03 06:59:35;;;;;;;5.07;1.40;;;;;;;;;;4999024;28;20058;-55
2021/09/03 07:02:01;;;;;;;7.38;1.42;;;;;;;;;;5001085;28;20906;-55
2021/09/03 07:04:28;;;;;;;4.97;1.67;;;;;;;;;;4999150;28;20037;-55
2021/09/03 07:06:53;;;;;;;4.45;1.30;;;;;;;;;;5001233;28;20042;-55
2021/09/03 07:09:19;;;;;;;6.60;1.52;;;;;;;;;;5000655;28;20119;-56
2021/09/03 07:11:45;;;;;;;4.57;1.50;;;;;;;;;;5001095;28;20107;-56
2021/09/03 07:14:11;;;;;;;8.20;1.75;;;;;;;;;;4998525;28;20935;-54
2021/09/03 07:16:37;;;;;;;8.30;1.35;;;;;;;;;;4998785;28;20057;-55
2021/09/03 07:19:03;;;;;;;8.55;1.48;;;;;;;;;;5000018;28;20397;-55
2021/09/03 07:21:30;;;;;;;3.58;1.48;;;;;;;;;;4999555;28;20042;-56
2021/09/03 07:23:56;;;;;;;4.13;1.40;;;;;;;;;;5000492;28;20160;-53
2021/09/03 07:26:22;;;;;;;8.35;1.50;;;;;;;;;;5001323;28;20073;-55
2021/09/03 07:28:47;;;;;;;4.05;1.30;;;;;;;;;;5002419;28;20819;-55
2021/09/03 07:31:13;;;;;;;7.13;1.35;;;;;;;;;;5000720;28;20100;-56
2021/09/03 07:33:39;;;;;;;4.18;1.40;;;;;;;;;;5000124;28;20042;-55
2021/09/03 07:36:05;;;;;;;3.70;1.20;;;;;;;;;;5000398;28;20096;-56
2021/09/03 07:38:31;;;;;;;3.67;1.23;;;;;;;;;;5000946;28;20033;-56
2021/09/03 07:40:57;;;;;;;3.95;1.30;;;;;;;;;;5001397;28;20089;-56
2021/09/03 07:43:23;;;;;;;4.07;1.55;;;;;;;;;;5000488;28;20030;-55
2021/09/03 07:45:52;;;;;;;7.60;1.40;;;;;;;;;;5001389;28;20052;-55
2021/09/03 07:48:17;;;;;;;3.33;1.30;;;;;;;;;;5001519;28;20558;-56
2021/09/03 07:50:43;;;;;;;3.97;1.30;;;;;;;;;;5001133;28;20058;-55
2021/09/03 07:53:11;;;;;;;6.43;1.23;;;;;;;;;;5000840;28;20525;-56
2021/09/03 07:55:37;;;;;;;5.03;1.20;;;;;;;;;;4998932;28;20038;-55
2021/09/03 07:58:03;;;;;;;4.88;1.50;;;;;;;;;;5001180;28;20045;-55
2021/09/03 08:00:29;;;;;;;3.85;1.05;;;;;;;;;;4997644;28;20053;-56
2021/09/03 08:02:55;;;;;;;4.68;1.27;;;;;;;;;;4981562;28;20041;-55
2021/09/03 08:05:21;;;;;;;4.03;1.30;;;;;;;;;;4989940;28;20555;-53
2021/09/03 08:07:47;;;;;;;5.10;1.40;;;;;;;;;;5000604;28;20133;-55
2021/09/03 08:10:14;;;;;;;7.82;1.40;;;;;;;;;;5000699;28;20042;-56
2021/09/03 08:12:40;;;;;;;6.15;1.17;;;;;;;;;;5000096;28;20184;-56
2021/09/03 08:15:06;;;;;;;3.92;1.30;;;;;;;;;;4998890;28;20053;-56
2021/09/03 08:17:32;;;;;;;7.13;1.42;;;;;;;;;;4999359;28;20634;-55
2021/09/03 08:19:58;;;;;;;4.38;1.30;;;;;;;;;;4999422;28;20206;-55
2021/09/03 08:22:24;;;;;;;4.00;1.30;;;;;;;;;;4999107;28;20110;-56
2021/09/03 08:24:50;;;;;;;3.38;1.05;;;;;;;;;;5000361;28;22815;-56
2021/09/03 08:27:16;;;;;;;5.55;1.45;;;;;;;;;;5000244;28;20080;-56
2021/09/03 08:29:43;;;;;;;4.32;1.45;;;;;;;;;;5000145;28;20038;-54
2021/09/03 08:32:10;;;;;;;3.78;1.20;;;;;;;;;;4999683;28;20519;-53
2021/09/03 08:34:36;;;;;;;3.65;1.23;;;;;;;;;;4999195;28;21950;-54
2021/09/03 08:37:02;;;;;;;7.30;1.60;;;;;;;;;;5001429;28;20038;-54
2021/09/03 08:39:27;;;;;;;4.78;1.65;;;;;;;;;;4999704;28;20125;-51
2021/09/03 08:41:53;;;;;;;3.75;1.40;;;;;;;;;;5000368;28;20034;-51
2021/09/03 08:44:19;;;;;;;3.53;1.20;;;;;;;;;;4998571;28;20081;-54
2021/09/03 08:46:45;;;;;;;4.45;1.17;;;;;;;;;;4998841;28;20076;-55
2021/09/03 08:49:11;;;;;;;6.82;1.48;;;;;;;;;;5000395;28;20034;-53
2021/09/03 08:51:37;;;;;;;5.38;1.58;;;;;;;;;;4999982;28;20060;-51
2021/09/03 08:54:03;;;;;;;3.88;1.33;;;;;;;;;;4998985;28;20042;-54
2021/09/03 08:56:29;;;;;;;4.32;1.42;;;;;;;;;;4999147;28;20041;-53
2021/09/03 08:58:54;;;;;;;6.97;1.60;;;;;;;;;;5000618;28;21863;-53
2021/09/03 09:01:20;;;;;;;4.85;1.50;;;;;;;;;;4998817;28;20492;-52
2021/09/03 09:03:47;;;;;;;3.85;1.45;;;;;;;;;;4999994;28;20052;-57
2021/09/03 09:06:31;;;;;;;3.17;1.20;;;;;;;;;;4999000;28;20038;-54
2021/09/03 09:09:04;;;;;;;3.53;1.35;;;;;;;;;;4998780;28;20034;-54
2021/09/03 09:11:30;;;;;;;3.95;1.40;;;;;;;;;;4999512;28;20108;-51
2021/09/03 09:13:58;;;;;;;4.90;1.52;;;;;;;;;;4999798;28;20132;-53
2021/09/03 09:16:26;;;;;;;5.18;1.55;;;;;;;;;;4998328;28;20582;-55
2021/09/03 09:18:56;;;;;;;3.13;1.20;;;;;;;;;;4999189;28;20041;-50
2021/09/03 09:21:29;;;;;;;2.95;1.15;;;;;;;;;;4998844;28;20045;-52
2021/09/03 09:23:57;;;;;;;2.70;1.00;;;;;;;;;;4998938;28;20057;-56
2021/09/03 09:26:24;;;;;;;5.07;1.33;;;;;;;;;;4998537;28;20041;-55
2021/09/03 09:28:51;;;;;;;3.58;1.15;;;;;;;;;;4999459;28;20131;-54
2021/09/03 09:31:34;;;;;;;4.43;1.35;;;;;;;;;;4998716;28;20080;-52
2021/09/03 09:34:11;;;;;;;8.20;1.20;;;;;;;;;;4998465;28;20042;-54
2021/09/03 09:36:37;;;;;;;3.47;1.30;;;;;;;;;;4999431;28;20642;-51
2021/09/03 09:39:03;;;;;;;3.50;1.13;;;;;;;;;;4999828;28;20061;-55
2021/09/03 09:41:28;;;;;;;4.72;1.25;;;;;;;;;;4997656;28;20600;-55
2021/09/03 09:43:54;;;;;;;4.25;1.48;;;;;;;;;;4998787;28;20061;-55
2021/09/03 09:46:21;;;;;;;4.70;1.38;;;;;;;;;;4998519;28;20054;-56
2021/09/03 09:48:50;;;;;;;2.83;1.10;;;;;;;;;;5000888;28;20038;-56
2021/09/03 09:51:22;;;;;;;3.53;1.27;;;;;;;;;;5000002;28;20042;-55
2021/09/03 09:53:53;;;;;;;5.13;1.40;;;;;;;;;;4999040;28;20065;-55
2021/09/03 09:56:20;;;;;;;3.63;1.13;;;;;;;;;;4999368;28;20073;-55
2021/09/03 09:58:48;;;;;;;3.72;1.10;;;;;;;;;;5001284;28;20476;-55
2021/09/03 10:01:14;;;;;;;2.97;0.95;;;;;;;;;;5003032;28;20452;-55
2021/09/03 10:03:39;;;;;;;2.72;0.95;;;;;;;;;;5004392;28;20042;-53
2021/09/03 10:06:05;;;;;;;5.30;1.08;;;;;;;;;;5002900;28;20661;-54
2021/09/03 10:08:31;;;;;;;3.92;1.17;;;;;;;;;;5001999;28;20049;-54
2021/09/03 10:10:57;;;;;;;4.88;1.25;;;;;;;;;;5003389;28;20085;-55
2021/09/03 10:13:22;;;;;;;3.50;1.30;;;;;;;;;;5001920;28;20030;-55
2021/09/03 10:15:48;;;;;;;3.67;1.23;;;;;;;;;;5002732;28;20697;-53
2021/09/03 10:18:16;;;;;;;3.50;1.30;;;;;;;;;;5003130;28;20088;-54
2021/09/03 10:20:42;;;;;;;3.10;1.10;;;;;;;;;;5003252;28;20535;-55
2021/09/03 10:23:08;;;;;;;3.28;1.20;;;;;;;;;;5002652;28;20038;-54
2021/09/03 10:25:51;;;;;;;3.75;1.27;;;;;;;;;;5001303;28;21948;-54
2021/09/03 10:28:24;;;;;;;3.23;0.90;;;;;;;;;;5003474;28;20037;-55
2021/09/03 10:31:06;;;;;;;4.65;1.10;;;;;;;;;;4981056;28;20054;-55
2021/09/03 10:33:36;;;;;;;5.20;1.45;;;;;;;;;;5003099;28;20041;-52
2021/09/03 10:36:02;;;;;;;4.97;1.17;;;;;;;;;;5003888;28;22077;-55
2021/09/03 10:38:29;;;;;;;3.08;1.10;;;;;;;;;;5003003;28;21039;-52
2021/09/03 10:40:55;;;;;;;3.25;0.90;;;;;;;;;;5004150;28;20041;-55
2021/09/03 10:43:40;;;;;;;3.25;0.98;;;;;;;;;;5001538;28;20053;-55
2021/09/03 10:46:08;;;;;;;4.70;1.20;;;;;;;;;;5001640;28;20096;-55
2021/09/03 10:48:33;;;;;;;4.03;1.30;;;;;;;;;;5000683;28;20025;-55
2021/09/03 10:51:00;;;;;;;4.50;1.10;;;;;;;;;;5002843;28;20065;-54
2021/09/03 10:53:37;;;;;;;4.18;1.38;;;;;;;;;;5001690;28;20496;-55
2021/09/03 10:56:12;;;;;;;4.15;1.10;;;;;;;;;;5003278;28;20049;-55
2021/09/03 10:58:44;;;;;;;3.97;1.30;;;;;;;;;;5000654;28;20161;-55
2021/09/03 11:01:10;;;;;;;4.28;1.40;;;;;;;;;;5001659;28;20076;-56
2021/09/03 11:03:45;;;;;;;3.55;1.17;;;;;;;;;;5002247;28;20092;-55
2021/09/03 11:06:23;;;;;;;5.32;1.35;;;;;;;;;;5001909;28;20045;-56
2021/09/03 11:08:49;;;;;;;3.92;1.13;;;;;;;;;;5000386;28;20365;-57
2021/09/03 11:11:25;;;;;;;4.55;1.25;;;;;;;;;;5000682;28;20072;-56
2021/09/03 11:13:52;;;;;;;4.35;1.10;;;;;;;;;;5000814;28;20042;-56
2021/09/03 11:16:30;;;;;;;2.72;0.90;;;;;;;;;;5002653;28;20115;-55
2021/09/03 11:19:00;;;;;;;3.72;1.13;;;;;;;;;;4999648;28;20069;-56
2021/09/03 11:21:33;;;;;;;3.67;1.23;;;;;;;;;;5000267;28;20125;-56
2021/09/03 11:23:59;;;;;;;6.35;1.35;;;;;;;;;;5001451;28;20069;-53
2021/09/03 11:26:27;;;;;;;3.30;1.30;;;;;;;;;;5001652;28;20564;-56
2021/09/03 11:28:53;;;;;;;3.60;1.10;;;;;;;;;;5000264;28;20050;-54
2021/09/03 11:31:18;;;;;;;11.02;1.40;;;;;;;;;;5000414;28;20056;-55
2021/09/03 11:33:45;;;;;;;3.33;1.10;;;;;;;;;;5001690;28;20089;-56
2021/09/03 11:36:11;;;;;;;3.20;1.10;;;;;;;;;;5000861;28;20041;-55
2021/09/03 11:38:37;;;;;;;2.88;1.00;;;;;;;;;;4999883;28;20042;-55
2021/09/03 11:41:10;;;;;;;3.53;0.93;;;;;;;;;;5002061;28;20053;-56
2021/09/03 11:43:35;;;;;;;4.07;0.90;;;;;;;;;;5000333;28;20052;-53
2021/09/03 11:46:13;;;;;;;2.70;1.10;;;;;;;;;;5001283;28;20833;-55
2021/09/03 11:48:39;;;;;;;6.53;1.08;;;;;;;;;;4999760;28;20042;-56
2021/09/03 11:51:04;;;;;;;2.88;1.10;;;;;;;;;;5001623;28;20539;-55
2021/09/03 11:53:30;;;;;;;4.05;0.95;;;;;;;;;;5001093;28;20042;-57
2021/09/03 11:55:56;;;;;;;3.22;1.10;;;;;;;;;;5001831;28;20042;-56
2021/09/03 11:58:23;;;;;;;2.95;1.17;;;;;;;;;;4999641;28;20069;-56
2021/09/03 12:00:53;;;;;;;4.03;1.10;;;;;;;;;;5001261;28;20040;-56
2021/09/03 12:03:20;;;;;;;2.75;0.88;;;;;;;;;;4999206;28;20038;-56
2021/09/03 12:05:47;;;;;;;3.50;1.10;;;;;;;;;;5001606;28;20926;-56
2021/09/03 12:08:17;;;;;;;5.80;1.00;;;;;;;;;;4999836;28;20046;-56
2021/09/03 12:11:01;;;;;;;3.13;1.10;;;;;;;;;;4998885;28;20045;-55
2021/09/03 12:13:28;;;;;;;4.00;1.50;;;;;;;;;;5000114;28;20061;-55
2021/09/03 12:15:59;;;;;;;6.82;1.40;;;;;;;;;;5001286;28;20045;-54
2021/09/03 12:18:24;;;;;;;2.90;1.05;;;;;;;;;;5000379;28;20081;-54
2021/09/03 12:21:01;;;;;;;3.30;1.13;;;;;;;;;;4998853;28;20038;-55
2021/09/03 12:23:47;;;;;;;6.25;1.40;;;;;;;;;;4998411;28;20038;-56
2021/09/03 12:26:18;;;;;;;6.03;1.30;;;;;;;;;;4999921;28;20038;-56
2021/09/03 12:28:48;;;;;;;8.77;1.30;;;;;;;;;;4998880;28;20381;-55
2021/09/03 12:31:16;;;;;;;3.45;1.20;;;;;;;;;;4999827;28;20053;-56
2021/09/03 12:33:48;;;;;;;4.35;1.23;;;;;;;;;;5000453;28;20052;-55
2021/09/03 12:36:17;;;;;;;3.83;1.35;;;;;;;;;;5000747;28;20038;-55
2021/09/03 12:38:43;;;;;;;5.60;1.60;;;;;;;;;;4999346;28;20496;-56
2021/09/03 12:41:11;;;;;;;4.57;1.60;;;;;;;;;;5000644;28;20049;-51
2021/09/03 12:43:37;;;;;;;3.90;1.40;;;;;;;;;;4998543;28;20077;-54
2021/09/03 12:46:07;;;;;;;4.13;1.30;;;;;;;;;;4999654;28;20121;-56
2021/09/03 12:48:33;;;;;;;3.53;1.30;;;;;;;;;;4999169;28;20623;-55
2021/09/03 12:50:59;;;;;;;3.72;1.48;;;;;;;;;;5000958;28;20049;-55
2021/09/03 12:53:25;;;;;;;6.72;1.70;;;;;;;;;;5000374;28;20044;-57
2021/09/03 12:55:52;;;;;;;4.75;1.50;;;;;;;;;;5001675;28;21114;-56
2021/09/03 12:58:18;;;;;;;6.75;1.40;;;;;;;;;;5000131;28;20037;-56
2021/09/03 13:00:44;;;;;;;5.63;1.63;;;;;;;;;;4999577;28;20472;-57
2021/09/03 13:03:10;;;;;;;5.18;2.03;;;;;;;;;;4999779;28;20057;-56
2021/09/03 13:05:36;;;;;;;6.63;2.17;;;;;;;;;;5001000;28;20042;-56
2021/09/03 13:08:03;;;;;;;7.70;2.28;;;;;;;;;;4998959;28;20038;-56
2021/09/03 13:10:28;;;;;;;5.97;1.67;;;;;;;;;;4998904;28;20049;-56
2021/09/03 13:12:54;;;;;;;10.45;2.30;;;;;;;;;;4987679;28;20037;-56
2021/09/03 13:15:21;;;;;;;8.13;1.98;;;;;;;;;;4998412;28;20038;-55
2021/09/03 13:17:47;;;;;;;8.90;2.50;;;;;;;;;;4999529;28;20042;-57
2021/09/03 13:20:13;;;;;;;6.50;1.88;;;;;;;;;;5000726;28;20449;-56
2021/09/03 13:22:39;;;;;;;7.20;2.20;;;;;;;;;;5000134;28;20041;-55
2021/09/03 13:25:06;;;;;;;5.90;2.28;;;;;;;;;;5000999;28;20030;-56
2021/09/03 13:27:32;;;;;;;4.65;1.65;;;;;;;;;;4999852;28;20040;-51
2021/09/03 13:29:57;;;;;;;10.75;2.95;;;;;;;;;;5000800;28;20094;-54
2021/09/03 13:32:23;;;;;;;6.30;2.22;;;;;;;;;;4999611;28;20512;-55
2021/09/03 13:34:49;;;;;;;6.32;1.80;;;;;;;;;;5000583;28;20049;-52
2021/09/03 13:37:18;;;;;;;11.52;1.92;;;;;;;;;;4995997;28;20038;-52
2021/09/03 13:39:47;;;;;;;6.70;2.28;;;;;;;;;;4998502;28;20163;-54
2021/09/03 13:42:13;;;;;;;7.68;2.30;;;;;;;;;;4999730;28;20045;-54
2021/09/03 13:44:39;;;;;;;7.88;2.08;;;;;;;;;;4998535;28;20415;-54
2021/09/03 13:47:05;;;;;;;6.15;1.60;;;;;;;;;;5000999;28;20068;-54
2021/09/03 13:49:31;;;;;;;5.00;1.80;;;;;;;;;;4999825;28;20038;-55
2021/09/03 13:51:57;;;;;;;7.25;2.03;;;;;;;;;;5000624;28;20046;-54
2021/09/03 13:54:23;;;;;;;3.80;1.73;;;;;;;;;;4999499;28;20030;-54
2021/09/03 13:56:48;;;;;;;5.57;1.77;;;;;;;;;;4999100;28;20588;-54
2021/09/03 13:59:14;;;;;;;6.95;1.88;;;;;;;;;;5000102;28;20083;-53
2021/09/03 14:01:41;;;;;;;6.50;1.65;;;;;;;;;;5000335;28;20038;-55
2021/09/03 14:04:07;;;;;;;4.90;1.90;;;;;;;;;;5001524;28;20041;-54
2021/09/03 14:06:36;;;;;;;5.53;1.80;;;;;;;;;;5001983;28;20045;-55
2021/09/03 14:09:02;;;;;;;5.63;1.67;;;;;;;;;;5000547;28;20132;-55
2021/09/03 14:11:28;;;;;;;8.77;1.83;;;;;;;;;;4997854;28;20077;-55
2021/09/03 14:13:54;;;;;;;3.47;1.40;;;;;;;;;;5000941;28;20041;-55
2021/09/03 14:16:20;;;;;;;6.15;1.50;;;;;;;;;;5001064;28;20057;-54
2021/09/03 14:18:46;;;;;;;5.22;1.70;;;;;;;;;;5001536;28;20046;-54
2021/09/03 14:21:12;;;;;;;5.80;1.55;;;;;;;;;;5002480;28;20037;-55
2021/09/03 14:23:37;;;;;;;3.25;1.25;;;;;;;;;;4999458;28;20038;-55
2021/09/03 14:26:04;;;;;;;3.70;1.25;;;;;;;;;;5002043;28;20042;-55
2021/09/03 14:28:30;;;;;;;3.17;1.17;;;;;;;;;;5000324;28;20049;-54
2021/09/03 14:30:55;;;;;;;4.05;1.33;;;;;;;;;;5001622;28;20087;-54
2021/09/03 14:33:21;;;;;;;4.72;1.20;;;;;;;;;;5000446;28;20113;-55
2021/09/03 14:35:47;;;;;;;4.00;1.33;;;;;;;;;;5002818;28;20045;-55
2021/09/03 14:38:13;;;;;;;4.75;1.40;;;;;;;;;;5000808;28;20076;-55
2021/09/03 14:40:39;;;;;;;4.57;1.30;;;;;;;;;;5001923;28;20053;-55